sensor_id;sensor_type;location;lat;lon;timestamp;temperature;humidity
12568;DHT22;6349;50.904;6.136;2023-06-24T00:00:52;20.60;99.90
12568;DHT22;6349;50.904;6.136;2023-06-24T00:02:52;20.60;99.90
12568;DHT22;6349;50.904;6.136;2023-06-24T00:04:54;20.60;99.90
12568;DHT22;6349;50.904;6.136;2023-06-24T00:06:54;20.60;99.90
12568;DHT22;6349;50.904;6.136;2023-06-24T00:08:56;20.60;99.90
12568;DHT22;6349;50.904;6.136;2023-06-24T00:11:01;20.60;99.90
12568;DHT22;6349;50.904;6.136;2023-06-24T00:13:02;20.70;99.90
12568;DHT22;6349;50.904;6.136;2023-06-24T00:15:03;20.60;99.90
12568;DHT22;6349;50.904;6.136;2023-06-24T00:17:04;20.60;99.90
12568;DHT22;6349;50.904;6.136;2023-06-24T00:19:07;20.60;99.90
12568;DHT22;6349;50.904;6.136;2023-06-24T00:21:08;20.60;99.90
12568;DHT22;6349;50.904;6.136;2023-06-24T00:23:09;20.60;99.90
12568;DHT22;6349;50.904;6.136;2023-06-24T00:25:10;20.60;99.90
12568;DHT22;6349;50.904;6.136;2023-06-24T00:27:12;20.60;99.90
12568;DHT22;6349;50.904;6.136;2023-06-24T00:29:14;20.60;99.90
12568;DHT22;6349;50.904;6.136;2023-06-24T00:31:17;20.50;99.90
12568;DHT22;6349;50.904;6.136;2023-06-24T00:33:19;20.40;99.90
12568;DHT22;6349;50.904;6.136;2023-06-24T00:35:22;20.30;99.90
12568;DHT22;6349;50.904;6.136;2023-06-24T00:37:24;20.30;99.90
12568;DHT22;6349;50.904;6.136;2023-06-24T00:39:26;20.20;99.90
12568;DHT22;6349;50.904;6.136;2023-06-24T00:41:28;20.20;99.90
12568;DHT22;6349;50.904;6.136;2023-06-24T00:43:30;20.10;99.90
12568;DHT22;6349;50.904;6.136;2023-06-24T00:45:32;20.10;99.90
12568;DHT22;6349;50.904;6.136;2023-06-24T00:47:32;20.10;99.90
12568;DHT22;6349;50.904;6.136;2023-06-24T00:49:33;20.10;99.90
12568;DHT22;6349;50.904;6.136;2023-06-24T00:51:34;20.00;99.90
12568;DHT22;6349;50.904;6.136;2023-06-24T00:53:36;20.10;99.90
12568;DHT22;6349;50.904;6.136;2023-06-24T00:55:38;20.00;99.90
12568;DHT22;6349;50.904;6.136;2023-06-24T00:57:43;20.00;99.90
12568;DHT22;6349;50.904;6.136;2023-06-24T00:59:45;19.90;99.90
12568;DHT22;6349;50.904;6.136;2023-06-24T01:01:48;19.90;99.90
12568;DHT22;6349;50.904;6.136;2023-06-24T01:03:53;19.80;99.90
12568;DHT22;6349;50.904;6.136;2023-06-24T01:05:54;19.80;99.90
12568;DHT22;6349;50.904;6.136;2023-06-24T01:07:56;19.70;99.90
12568;DHT22;6349;50.904;6.136;2023-06-24T01:09:58;19.70;99.90
12568;DHT22;6349;50.904;6.136;2023-06-24T01:12:00;19.60;99.90
12568;DHT22;6349;50.904;6.136;2023-06-24T01:14:03;19.60;99.90
12568;DHT22;6349;50.904;6.136;2023-06-24T01:16:11;19.70;99.90
12568;DHT22;6349;50.904;6.136;2023-06-24T01:18:36;19.60;99.90
12568;DHT22;6349;50.904;6.136;2023-06-24T01:20:55;19.60;99.90
12568;DHT22;6349;50.904;6.136;2023-06-24T01:32:44;19.30;99.90
12568;DHT22;6349;50.904;6.136;2023-06-24T01:34:55;19.30;99.90
12568;DHT22;6349;50.904;6.136;2023-06-24T01:39:08;19.30;99.90
12568;DHT22;6349;50.904;6.136;2023-06-24T01:41:13;19.30;99.90
12568;DHT22;6349;50.904;6.136;2023-06-24T01:43:17;19.30;99.90
12568;DHT22;6349;50.904;6.136;2023-06-24T01:45:26;19.30;99.90
12568;DHT22;6349;50.904;6.136;2023-06-24T01:47:29;19.20;99.90
12568;DHT22;6349;50.904;6.136;2023-06-24T01:49:31;19.30;99.90
12568;DHT22;6349;50.904;6.136;2023-06-24T01:51:35;19.30;99.90
12568;DHT22;6349;50.904;6.136;2023-06-24T01:53:50;19.30;99.90
12568;DHT22;6349;50.904;6.136;2023-06-24T01:55:52;19.20;99.90
12568;DHT22;6349;50.904;6.136;2023-06-24T01:57:54;19.30;99.90
12568;DHT22;6349;50.904;6.136;2023-06-24T01:59:59;19.20;99.90
12568;DHT22;6349;50.904;6.136;2023-06-24T02:02:02;19.20;99.90
12568;DHT22;6349;50.904;6.136;2023-06-24T02:04:04;19.20;99.90
12568;DHT22;6349;50.904;6.136;2023-06-24T02:06:08;19.30;99.90
12568;DHT22;6349;50.904;6.136;2023-06-24T02:08:11;19.30;99.90
12568;DHT22;6349;50.904;6.136;2023-06-24T02:10:16;19.30;99.90
12568;DHT22;6349;50.904;6.136;2023-06-24T02:12:17;19.30;99.90
12568;DHT22;6349;50.904;6.136;2023-06-24T02:14:19;19.30;99.90
12568;DHT22;6349;50.904;6.136;2023-06-24T02:16:21;19.30;99.90
12568;DHT22;6349;50.904;6.136;2023-06-24T02:18:22;19.30;99.90
12568;DHT22;6349;50.904;6.136;2023-06-24T02:20:24;19.30;99.90
12568;DHT22;6349;50.904;6.136;2023-06-24T02:22:29;19.30;99.90
12568;DHT22;6349;50.904;6.136;2023-06-24T02:24:30;19.20;99.90
12568;DHT22;6349;50.904;6.136;2023-06-24T02:26:30;19.20;99.90
12568;DHT22;6349;50.904;6.136;2023-06-24T02:28:33;19.20;99.90
12568;DHT22;6349;50.904;6.136;2023-06-24T02:30:37;19.20;99.90
12568;DHT22;6349;50.904;6.136;2023-06-24T02:32:38;19.30;99.90
12568;DHT22;6349;50.904;6.136;2023-06-24T02:34:39;19.30;99.90
12568;DHT22;6349;50.904;6.136;2023-06-24T02:36:40;19.30;99.90
12568;DHT22;6349;50.904;6.136;2023-06-24T02:38:40;19.20;99.90
12568;DHT22;6349;50.904;6.136;2023-06-24T02:40:44;19.20;99.90
12568;DHT22;6349;50.904;6.136;2023-06-24T02:42:45;19.10;99.90
12568;DHT22;6349;50.904;6.136;2023-06-24T02:44:46;19.10;99.90
12568;DHT22;6349;50.904;6.136;2023-06-24T02:46:47;19.00;99.90
12568;DHT22;6349;50.904;6.136;2023-06-24T02:48:49;19.00;99.90
12568;DHT22;6349;50.904;6.136;2023-06-24T02:50:52;19.10;99.90
12568;DHT22;6349;50.904;6.136;2023-06-24T02:52:52;19.00;99.90
12568;DHT22;6349;50.904;6.136;2023-06-24T02:54:57;19.00;99.90
12568;DHT22;6349;50.904;6.136;2023-06-24T02:57:00;19.00;99.90
12568;DHT22;6349;50.904;6.136;2023-06-24T02:59:01;19.00;99.90
12568;DHT22;6349;50.904;6.136;2023-06-24T03:01:02;19.10;99.90
12568;DHT22;6349;50.904;6.136;2023-06-24T03:03:07;19.00;99.90
12568;DHT22;6349;50.904;6.136;2023-06-24T03:05:09;19.00;99.90
12568;DHT22;6349;50.904;6.136;2023-06-24T03:07:11;19.00;99.90
12568;DHT22;6349;50.904;6.136;2023-06-24T03:09:11;19.00;99.90
12568;DHT22;6349;50.904;6.136;2023-06-24T03:11:13;19.00;99.90
12568;DHT22;6349;50.904;6.136;2023-06-24T03:13:16;19.00;99.90
12568;DHT22;6349;50.904;6.136;2023-06-24T03:15:18;19.00;99.90
12568;DHT22;6349;50.904;6.136;2023-06-24T03:17:19;19.00;99.90
12568;DHT22;6349;50.904;6.136;2023-06-24T03:19:21;19.00;99.90
12568;DHT22;6349;50.904;6.136;2023-06-24T03:21:21;19.00;99.90
12568;DHT22;6349;50.904;6.136;2023-06-24T03:23:28;18.90;99.90
12568;DHT22;6349;50.904;6.136;2023-06-24T03:25:30;18.90;99.90
12568;DHT22;6349;50.904;6.136;2023-06-24T03:27:31;18.90;99.90
12568;DHT22;6349;50.904;6.136;2023-06-24T03:29:32;18.80;99.90
12568;DHT22;6349;50.904;6.136;2023-06-24T03:31:33;18.80;99.90
12568;DHT22;6349;50.904;6.136;2023-06-24T03:33:34;18.80;99.90
12568;DHT22;6349;50.904;6.136;2023-06-24T03:35:34;18.80;99.90
12568;DHT22;6349;50.904;6.136;2023-06-24T03:37:35;18.80;99.90
12568;DHT22;6349;50.904;6.136;2023-06-24T03:39:35;18.80;99.90
12568;DHT22;6349;50.904;6.136;2023-06-24T03:41:36;18.70;99.90
12568;DHT22;6349;50.904;6.136;2023-06-24T03:43:37;18.80;99.90
12568;DHT22;6349;50.904;6.136;2023-06-24T03:45:37;18.70;99.90
12568;DHT22;6349;50.904;6.136;2023-06-24T03:47:38;18.70;99.90
12568;DHT22;6349;50.904;6.136;2023-06-24T03:49:39;18.70;99.90
12568;DHT22;6349;50.904;6.136;2023-06-24T03:51:39;18.70;99.90
12568;DHT22;6349;50.904;6.136;2023-06-24T03:53:40;18.70;99.90
12568;DHT22;6349;50.904;6.136;2023-06-24T03:55:42;18.70;99.90
12568;DHT22;6349;50.904;6.136;2023-06-24T03:57:44;18.70;99.90
12568;DHT22;6349;50.904;6.136;2023-06-24T03:59:44;18.70;99.90
12568;DHT22;6349;50.904;6.136;2023-06-24T04:01:46;18.70;99.90
12568;DHT22;6349;50.904;6.136;2023-06-24T04:03:47;18.70;99.90
12568;DHT22;6349;50.904;6.136;2023-06-24T04:05:47;18.80;99.90
12568;DHT22;6349;50.904;6.136;2023-06-24T04:07:48;18.80;99.90
12568;DHT22;6349;50.904;6.136;2023-06-24T04:09:55;18.80;99.90
12568;DHT22;6349;50.904;6.136;2023-06-24T04:11:56;18.80;99.90
12568;DHT22;6349;50.904;6.136;2023-06-24T04:13:56;18.80;99.90
12568;DHT22;6349;50.904;6.136;2023-06-24T04:15:57;18.80;99.90
12568;DHT22;6349;50.904;6.136;2023-06-24T04:17:58;18.80;99.90
12568;DHT22;6349;50.904;6.136;2023-06-24T04:19:58;18.80;99.90
12568;DHT22;6349;50.904;6.136;2023-06-24T04:21:59;18.80;99.90
12568;DHT22;6349;50.904;6.136;2023-06-24T04:24:00;18.80;99.90
12568;DHT22;6349;50.904;6.136;2023-06-24T04:26:02;18.80;99.90
12568;DHT22;6349;50.904;6.136;2023-06-24T04:28:04;18.80;99.90
12568;DHT22;6349;50.904;6.136;2023-06-24T04:30:06;18.80;99.90
12568;DHT22;6349;50.904;6.136;2023-06-24T04:32:09;18.80;99.90
12568;DHT22;6349;50.904;6.136;2023-06-24T04:34:09;18.80;99.90
12568;DHT22;6349;50.904;6.136;2023-06-24T04:36:11;18.80;99.90
12568;DHT22;6349;50.904;6.136;2023-06-24T04:38:13;18.80;99.90
12568;DHT22;6349;50.904;6.136;2023-06-24T04:40:19;18.80;99.90
12568;DHT22;6349;50.904;6.136;2023-06-24T04:42:20;18.90;99.90
12568;DHT22;6349;50.904;6.136;2023-06-24T04:44:20;18.80;99.90
12568;DHT22;6349;50.904;6.136;2023-06-24T04:46:22;18.80;99.90
12568;DHT22;6349;50.904;6.136;2023-06-24T04:48:23;18.80;99.90
12568;DHT22;6349;50.904;6.136;2023-06-24T04:50:24;18.80;99.90
12568;DHT22;6349;50.904;6.136;2023-06-24T04:52:25;18.80;99.90
12568;DHT22;6349;50.904;6.136;2023-06-24T04:54:27;18.90;99.90
12568;DHT22;6349;50.904;6.136;2023-06-24T04:56:27;18.80;99.90
12568;DHT22;6349;50.904;6.136;2023-06-24T04:58:28;18.80;99.90
12568;DHT22;6349;50.904;6.136;2023-06-24T05:00:30;18.80;99.90
12568;DHT22;6349;50.904;6.136;2023-06-24T05:02:30;18.80;99.90
12568;DHT22;6349;50.904;6.136;2023-06-24T05:04:32;18.80;99.90
12568;DHT22;6349;50.904;6.136;2023-06-24T05:06:33;18.80;99.90
12568;DHT22;6349;50.904;6.136;2023-06-24T05:08:33;18.80;99.90
12568;DHT22;6349;50.904;6.136;2023-06-24T05:10:35;18.80;99.90
12568;DHT22;6349;50.904;6.136;2023-06-24T05:12:36;18.80;99.90
12568;DHT22;6349;50.904;6.136;2023-06-24T05:14:37;18.90;99.90
12568;DHT22;6349;50.904;6.136;2023-06-24T05:16:37;18.90;99.90
12568;DHT22;6349;50.904;6.136;2023-06-24T05:18:38;18.90;99.90
12568;DHT22;6349;50.904;6.136;2023-06-24T05:20:39;18.90;99.90
12568;DHT22;6349;50.904;6.136;2023-06-24T05:22:40;19.00;99.90
12568;DHT22;6349;50.904;6.136;2023-06-24T05:24:41;19.00;99.90
12568;DHT22;6349;50.904;6.136;2023-06-24T05:26:42;19.00;99.90
12568;DHT22;6349;50.904;6.136;2023-06-24T05:28:43;19.00;99.90
12568;DHT22;6349;50.904;6.136;2023-06-24T05:30:47;19.00;99.90
12568;DHT22;6349;50.904;6.136;2023-06-24T05:32:48;19.00;99.90
12568;DHT22;6349;50.904;6.136;2023-06-24T05:34:48;19.10;99.90
12568;DHT22;6349;50.904;6.136;2023-06-24T05:36:49;19.10;99.90
12568;DHT22;6349;50.904;6.136;2023-06-24T05:38:50;19.10;99.90
12568;DHT22;6349;50.904;6.136;2023-06-24T05:40:52;19.10;99.90
12568;DHT22;6349;50.904;6.136;2023-06-24T05:42:53;19.20;99.90
12568;DHT22;6349;50.904;6.136;2023-06-24T05:44:54;19.20;99.90
12568;DHT22;6349;50.904;6.136;2023-06-24T05:46:55;19.20;99.90
12568;DHT22;6349;50.904;6.136;2023-06-24T05:48:55;19.20;99.90
12568;DHT22;6349;50.904;6.136;2023-06-24T05:50:56;19.30;99.90
12568;DHT22;6349;50.904;6.136;2023-06-24T05:52:58;19.30;99.90
12568;DHT22;6349;50.904;6.136;2023-06-24T05:54:59;19.30;99.90
12568;DHT22;6349;50.904;6.136;2023-06-24T05:57:00;19.40;99.90
12568;DHT22;6349;50.904;6.136;2023-06-24T05:59:02;19.40;99.90
12568;DHT22;6349;50.904;6.136;2023-06-24T06:01:03;19.40;99.90
12568;DHT22;6349;50.904;6.136;2023-06-24T06:03:03;19.50;99.90
12568;DHT22;6349;50.904;6.136;2023-06-24T06:05:05;19.50;99.90
12568;DHT22;6349;50.904;6.136;2023-06-24T06:07:06;19.60;99.90
12568;DHT22;6349;50.904;6.136;2023-06-24T06:09:08;19.60;99.90
12568;DHT22;6349;50.904;6.136;2023-06-24T06:11:08;19.60;99.90
12568;DHT22;6349;50.904;6.136;2023-06-24T06:13:09;19.70;99.90
12568;DHT22;6349;50.904;6.136;2023-06-24T06:15:10;19.70;99.90
12568;DHT22;6349;50.904;6.136;2023-06-24T06:17:13;19.80;99.90
12568;DHT22;6349;50.904;6.136;2023-06-24T06:19:14;19.80;99.90
12568;DHT22;6349;50.904;6.136;2023-06-24T06:21:14;19.80;99.90
12568;DHT22;6349;50.904;6.136;2023-06-24T06:23:15;19.90;99.90
12568;DHT22;6349;50.904;6.136;2023-06-24T06:25:17;19.90;99.90
12568;DHT22;6349;50.904;6.136;2023-06-24T06:27:19;19.90;99.90
12568;DHT22;6349;50.904;6.136;2023-06-24T06:29:20;20.10;99.90
12568;DHT22;6349;50.904;6.136;2023-06-24T06:31:20;20.00;99.90
12568;DHT22;6349;50.904;6.136;2023-06-24T06:33:21;20.10;99.90
12568;DHT22;6349;50.904;6.136;2023-06-24T06:35:22;20.00;99.90
12568;DHT22;6349;50.904;6.136;2023-06-24T06:37:22;20.10;99.90
12568;DHT22;6349;50.904;6.136;2023-06-24T06:39:24;20.10;99.90
12568;DHT22;6349;50.904;6.136;2023-06-24T06:41:25;20.10;99.90
12568;DHT22;6349;50.904;6.136;2023-06-24T06:43:25;20.10;99.90
12568;DHT22;6349;50.904;6.136;2023-06-24T06:45:26;20.20;99.90
12568;DHT22;6349;50.904;6.136;2023-06-24T06:47:26;20.20;99.90
12568;DHT22;6349;50.904;6.136;2023-06-24T06:49:27;20.30;99.90
12568;DHT22;6349;50.904;6.136;2023-06-24T06:51:29;20.30;99.90
12568;DHT22;6349;50.904;6.136;2023-06-24T06:53:31;20.30;99.90
12568;DHT22;6349;50.904;6.136;2023-06-24T06:55:33;20.40;99.90
12568;DHT22;6349;50.904;6.136;2023-06-24T06:57:34;20.40;99.90
12568;DHT22;6349;50.904;6.136;2023-06-24T06:59:36;20.50;99.90
12568;DHT22;6349;50.904;6.136;2023-06-24T07:01:38;20.50;99.90
12568;DHT22;6349;50.904;6.136;2023-06-24T07:03:40;20.60;99.90
12568;DHT22;6349;50.904;6.136;2023-06-24T07:05:42;20.60;99.90
12568;DHT22;6349;50.904;6.136;2023-06-24T07:07:44;20.70;99.90
12568;DHT22;6349;50.904;6.136;2023-06-24T07:09:47;20.70;99.90
12568;DHT22;6349;50.904;6.136;2023-06-24T07:11:52;20.70;99.90
12568;DHT22;6349;50.904;6.136;2023-06-24T07:13:54;20.80;99.90
12568;DHT22;6349;50.904;6.136;2023-06-24T07:15:55;20.80;99.90
12568;DHT22;6349;50.904;6.136;2023-06-24T07:17:57;20.90;99.90
12568;DHT22;6349;50.904;6.136;2023-06-24T07:19:59;21.00;99.90
12568;DHT22;6349;50.904;6.136;2023-06-24T07:21:59;21.00;99.90
12568;DHT22;6349;50.904;6.136;2023-06-24T07:24:01;21.10;99.90
12568;DHT22;6349;50.904;6.136;2023-06-24T07:26:04;21.10;99.90
12568;DHT22;6349;50.904;6.136;2023-06-24T07:28:06;21.10;99.90
12568;DHT22;6349;50.904;6.136;2023-06-24T07:30:08;21.20;99.90
12568;DHT22;6349;50.904;6.136;2023-06-24T07:32:10;21.30;99.90
12568;DHT22;6349;50.904;6.136;2023-06-24T07:34:12;21.40;99.90
12568;DHT22;6349;50.904;6.136;2023-06-24T07:36:14;21.50;99.90
12568;DHT22;6349;50.904;6.136;2023-06-24T07:38:15;21.50;99.90
12568;DHT22;6349;50.904;6.136;2023-06-24T07:40:18;21.60;99.90
12568;DHT22;6349;50.904;6.136;2023-06-24T07:42:19;21.60;99.90
12568;DHT22;6349;50.904;6.136;2023-06-24T07:44:20;21.70;99.90
12568;DHT22;6349;50.904;6.136;2023-06-24T07:46:22;21.70;99.90
12568;DHT22;6349;50.904;6.136;2023-06-24T07:48:24;21.70;99.90
12568;DHT22;6349;50.904;6.136;2023-06-24T07:50:26;21.70;99.90
12568;DHT22;6349;50.904;6.136;2023-06-24T07:52:28;21.80;99.90
12568;DHT22;6349;50.904;6.136;2023-06-24T07:54:29;21.80;99.90
12568;DHT22;6349;50.904;6.136;2023-06-24T07:56:31;21.90;99.90
12568;DHT22;6349;50.904;6.136;2023-06-24T07:58:33;21.90;99.90
12568;DHT22;6349;50.904;6.136;2023-06-24T08:00:36;21.90;99.90
12568;DHT22;6349;50.904;6.136;2023-06-24T08:02:38;22.00;99.90
12568;DHT22;6349;50.904;6.136;2023-06-24T08:04:40;22.00;99.90
12568;DHT22;6349;50.904;6.136;2023-06-24T08:06:41;22.00;99.90
12568;DHT22;6349;50.904;6.136;2023-06-24T08:08:43;22.00;99.90
12568;DHT22;6349;50.904;6.136;2023-06-24T08:10:48;22.00;99.90
12568;DHT22;6349;50.904;6.136;2023-06-24T08:12:50;22.00;99.90
12568;DHT22;6349;50.904;6.136;2023-06-24T08:14:52;22.10;99.90
12568;DHT22;6349;50.904;6.136;2023-06-24T08:16:53;22.10;99.90
12568;DHT22;6349;50.904;6.136;2023-06-24T08:18:55;22.10;99.90
12568;DHT22;6349;50.904;6.136;2023-06-24T08:20:56;22.10;99.90
12568;DHT22;6349;50.904;6.136;2023-06-24T08:22:58;22.20;99.90
12568;DHT22;6349;50.904;6.136;2023-06-24T08:25:00;22.20;99.90
12568;DHT22;6349;50.904;6.136;2023-06-24T08:27:02;22.30;99.90
12568;DHT22;6349;50.904;6.136;2023-06-24T08:29:04;22.40;99.90
12568;DHT22;6349;50.904;6.136;2023-06-24T08:31:06;22.30;99.90
12568;DHT22;6349;50.904;6.136;2023-06-24T08:33:08;22.30;99.90
12568;DHT22;6349;50.904;6.136;2023-06-24T08:35:09;22.30;99.90
12568;DHT22;6349;50.904;6.136;2023-06-24T08:37:11;22.40;99.90
12568;DHT22;6349;50.904;6.136;2023-06-24T08:39:12;22.60;99.90
12568;DHT22;6349;50.904;6.136;2023-06-24T08:41:14;22.50;99.90
12568;DHT22;6349;50.904;6.136;2023-06-24T08:43:14;22.50;99.90
12568;DHT22;6349;50.904;6.136;2023-06-24T08:45:17;22.60;99.90
12568;DHT22;6349;50.904;6.136;2023-06-24T08:47:19;22.60;99.90
12568;DHT22;6349;50.904;6.136;2023-06-24T08:49:30;22.70;99.90
12568;DHT22;6349;50.904;6.136;2023-06-24T08:51:37;22.70;99.90
12568;DHT22;6349;50.904;6.136;2023-06-24T08:53:44;22.70;99.90
12568;DHT22;6349;50.904;6.136;2023-06-24T08:55:46;22.80;99.90
12568;DHT22;6349;50.904;6.136;2023-06-24T08:57:47;22.80;99.90
12568;DHT22;6349;50.904;6.136;2023-06-24T08:59:48;22.80;99.90
12568;DHT22;6349;50.904;6.136;2023-06-24T09:01:52;22.80;99.90
12568;DHT22;6349;50.904;6.136;2023-06-24T09:03:52;22.90;99.90
12568;DHT22;6349;50.904;6.136;2023-06-24T09:05:54;22.90;99.90
12568;DHT22;6349;50.904;6.136;2023-06-24T09:07:57;23.00;99.90
12568;DHT22;6349;50.904;6.136;2023-06-24T09:09:59;23.00;99.90
12568;DHT22;6349;50.904;6.136;2023-06-24T09:12:10;23.10;99.90
12568;DHT22;6349;50.904;6.136;2023-06-24T09:14:13;23.10;99.90
12568;DHT22;6349;50.904;6.136;2023-06-24T09:16:15;23.10;99.90
12568;DHT22;6349;50.904;6.136;2023-06-24T09:18:17;23.10;99.90
12568;DHT22;6349;50.904;6.136;2023-06-24T09:20:19;23.10;99.90
12568;DHT22;6349;50.904;6.136;2023-06-24T09:22:28;23.20;99.90
12568;DHT22;6349;50.904;6.136;2023-06-24T09:24:37;23.20;99.90
12568;DHT22;6349;50.904;6.136;2023-06-24T09:26:38;23.10;99.90
12568;DHT22;6349;50.904;6.136;2023-06-24T09:28:38;23.20;99.90
12568;DHT22;6349;50.904;6.136;2023-06-24T09:30:39;23.20;99.90
12568;DHT22;6349;50.904;6.136;2023-06-24T09:32:43;23.30;99.90
12568;DHT22;6349;50.904;6.136;2023-06-24T09:34:45;23.30;99.90
12568;DHT22;6349;50.904;6.136;2023-06-24T09:37:06;23.30;99.90
12568;DHT22;6349;50.904;6.136;2023-06-24T09:39:08;23.30;99.90
12568;DHT22;6349;50.904;6.136;2023-06-24T09:41:09;23.40;99.90
12568;DHT22;6349;50.904;6.136;2023-06-24T09:43:20;23.60;99.90
12568;DHT22;6349;50.904;6.136;2023-06-24T09:45:29;23.50;99.90
12568;DHT22;6349;50.904;6.136;2023-06-24T09:47:30;23.60;99.90
12568;DHT22;6349;50.904;6.136;2023-06-24T09:49:32;23.70;99.90
12568;DHT22;6349;50.904;6.136;2023-06-24T09:51:47;23.80;99.90
12568;DHT22;6349;50.904;6.136;2023-06-24T09:53:53;23.70;99.90
12568;DHT22;6349;50.904;6.136;2023-06-24T09:55:56;23.70;99.90
12568;DHT22;6349;50.904;6.136;2023-06-24T09:57:58;23.70;99.90
12568;DHT22;6349;50.904;6.136;2023-06-24T10:00:01;23.70;99.90
12568;DHT22;6349;50.904;6.136;2023-06-24T10:02:04;23.70;99.90
12568;DHT22;6349;50.904;6.136;2023-06-24T10:04:15;23.70;99.90
12568;DHT22;6349;50.904;6.136;2023-06-24T10:06:19;23.80;99.90
12568;DHT22;6349;50.904;6.136;2023-06-24T10:08:21;23.90;99.90
12568;DHT22;6349;50.904;6.136;2023-06-24T10:10:23;23.90;99.90
12568;DHT22;6349;50.904;6.136;2023-06-24T10:12:25;24.00;99.90
12568;DHT22;6349;50.904;6.136;2023-06-24T10:14:29;24.00;99.90
12568;DHT22;6349;50.904;6.136;2023-06-24T10:16:31;24.10;99.90
12568;DHT22;6349;50.904;6.136;2023-06-24T10:18:38;24.20;99.90
12568;DHT22;6349;50.904;6.136;2023-06-24T10:20:40;24.20;99.90
12568;DHT22;6349;50.904;6.136;2023-06-24T10:23:05;24.10;99.90
12568;DHT22;6349;50.904;6.136;2023-06-24T10:25:07;24.20;99.90
12568;DHT22;6349;50.904;6.136;2023-06-24T10:27:15;24.30;99.90
12568;DHT22;6349;50.904;6.136;2023-06-24T10:29:17;24.40;99.90
12568;DHT22;6349;50.904;6.136;2023-06-24T10:31:50;24.40;99.90
12568;DHT22;6349;50.904;6.136;2023-06-24T10:33:58;24.30;99.90
12568;DHT22;6349;50.904;6.136;2023-06-24T10:36:00;24.40;99.90
12568;DHT22;6349;50.904;6.136;2023-06-24T10:38:02;24.40;99.90
12568;DHT22;6349;50.904;6.136;2023-06-24T10:40:04;24.50;99.90
12568;DHT22;6349;50.904;6.136;2023-06-24T10:44:45;24.70;99.90
12568;DHT22;6349;50.904;6.136;2023-06-24T10:46:56;24.70;99.90
12568;DHT22;6349;50.904;6.136;2023-06-24T10:48:57;24.70;99.90
12568;DHT22;6349;50.904;6.136;2023-06-24T10:50:58;24.80;99.90
12568;DHT22;6349;50.904;6.136;2023-06-24T10:52:59;24.80;99.90
12568;DHT22;6349;50.904;6.136;2023-06-24T10:55:03;24.80;99.90
12568;DHT22;6349;50.904;6.136;2023-06-24T10:57:05;24.90;99.90
12568;DHT22;6349;50.904;6.136;2023-06-24T10:59:07;24.80;99.90
12568;DHT22;6349;50.904;6.136;2023-06-24T11:01:08;24.80;99.90
12568;DHT22;6349;50.904;6.136;2023-06-24T11:03:16;24.90;99.90
12568;DHT22;6349;50.904;6.136;2023-06-24T11:05:17;24.90;99.90
12568;DHT22;6349;50.904;6.136;2023-06-24T11:07:19;24.90;99.90
12568;DHT22;6349;50.904;6.136;2023-06-24T11:09:22;24.90;99.90
12568;DHT22;6349;50.904;6.136;2023-06-24T11:11:24;24.90;99.90
12568;DHT22;6349;50.904;6.136;2023-06-24T11:13:25;25.10;99.90
12568;DHT22;6349;50.904;6.136;2023-06-24T11:15:27;25.10;99.90
12568;DHT22;6349;50.904;6.136;2023-06-24T11:17:28;25.10;99.90
12568;DHT22;6349;50.904;6.136;2023-06-24T11:19:32;25.30;99.90
12568;DHT22;6349;50.904;6.136;2023-06-24T11:21:34;25.40;99.90
12568;DHT22;6349;50.904;6.136;2023-06-24T11:23:36;25.40;99.90
12568;DHT22;6349;50.904;6.136;2023-06-24T11:25:42;25.50;99.90
12568;DHT22;6349;50.904;6.136;2023-06-24T11:27:43;25.60;99.90
12568;DHT22;6349;50.904;6.136;2023-06-24T11:29:44;25.60;99.90
12568;DHT22;6349;50.904;6.136;2023-06-24T11:31:47;25.70;99.90
12568;DHT22;6349;50.904;6.136;2023-06-24T11:33:50;25.70;99.90
12568;DHT22;6349;50.904;6.136;2023-06-24T11:35:50;25.80;99.90
12568;DHT22;6349;50.904;6.136;2023-06-24T11:37:51;25.80;99.90
12568;DHT22;6349;50.904;6.136;2023-06-24T11:40:06;25.80;99.90
12568;DHT22;6349;50.904;6.136;2023-06-24T11:42:08;25.90;99.90
12568;DHT22;6349;50.904;6.136;2023-06-24T11:44:10;25.80;99.90
12568;DHT22;6349;50.904;6.136;2023-06-24T11:46:21;25.90;99.90
12568;DHT22;6349;50.904;6.136;2023-06-24T11:48:21;26.00;99.90
12568;DHT22;6349;50.904;6.136;2023-06-24T11:50:26;26.00;99.90
12568;DHT22;6349;50.904;6.136;2023-06-24T11:52:48;26.10;99.90
12568;DHT22;6349;50.904;6.136;2023-06-24T11:54:51;26.20;99.90
12568;DHT22;6349;50.904;6.136;2023-06-24T11:56:52;26.10;99.90
12568;DHT22;6349;50.904;6.136;2023-06-24T11:58:54;26.20;99.90
12568;DHT22;6349;50.904;6.136;2023-06-24T12:00:56;26.40;99.90
12568;DHT22;6349;50.904;6.136;2023-06-24T12:03:07;26.40;99.90
12568;DHT22;6349;50.904;6.136;2023-06-24T12:05:09;26.50;99.90
12568;DHT22;6349;50.904;6.136;2023-06-24T12:07:11;26.50;99.90
12568;DHT22;6349;50.904;6.136;2023-06-24T12:09:12;26.60;99.90
12568;DHT22;6349;50.904;6.136;2023-06-24T12:11:14;26.70;99.90
12568;DHT22;6349;50.904;6.136;2023-06-24T12:13:16;26.70;99.90
12568;DHT22;6349;50.904;6.136;2023-06-24T12:15:18;26.70;99.90
12568;DHT22;6349;50.904;6.136;2023-06-24T12:17:20;26.80;99.90
12568;DHT22;6349;50.904;6.136;2023-06-24T12:19:21;26.80;99.90
12568;DHT22;6349;50.904;6.136;2023-06-24T12:21:23;26.90;99.90
12568;DHT22;6349;50.904;6.136;2023-06-24T12:23:24;27.00;99.90
12568;DHT22;6349;50.904;6.136;2023-06-24T12:25:27;27.10;99.90
12568;DHT22;6349;50.904;6.136;2023-06-24T12:27:29;27.00;99.90
12568;DHT22;6349;50.904;6.136;2023-06-24T12:29:30;27.00;99.90
12568;DHT22;6349;50.904;6.136;2023-06-24T12:31:32;26.90;99.90
12568;DHT22;6349;50.904;6.136;2023-06-24T12:33:34;27.10;99.90
12568;DHT22;6349;50.904;6.136;2023-06-24T12:35:36;27.10;99.90
12568;DHT22;6349;50.904;6.136;2023-06-24T12:37:37;27.20;99.90
12568;DHT22;6349;50.904;6.136;2023-06-24T12:39:38;27.30;99.90
12568;DHT22;6349;50.904;6.136;2023-06-24T12:41:40;27.30;99.90
12568;DHT22;6349;50.904;6.136;2023-06-24T12:43:41;27.40;99.90
12568;DHT22;6349;50.904;6.136;2023-06-24T12:45:42;27.40;99.90
12568;DHT22;6349;50.904;6.136;2023-06-24T12:47:48;27.40;99.90
12568;DHT22;6349;50.904;6.136;2023-06-24T12:49:51;27.40;99.90
12568;DHT22;6349;50.904;6.136;2023-06-24T12:51:53;27.40;99.90
12568;DHT22;6349;50.904;6.136;2023-06-24T12:53:55;27.40;99.90
12568;DHT22;6349;50.904;6.136;2023-06-24T12:55:57;27.50;99.90
12568;DHT22;6349;50.904;6.136;2023-06-24T12:57:57;27.50;99.90
12568;DHT22;6349;50.904;6.136;2023-06-24T12:59:58;27.50;99.90
12568;DHT22;6349;50.904;6.136;2023-06-24T13:02:00;27.50;99.90
12568;DHT22;6349;50.904;6.136;2023-06-24T13:04:02;27.50;99.90
12568;DHT22;6349;50.904;6.136;2023-06-24T13:06:04;27.50;99.90
12568;DHT22;6349;50.904;6.136;2023-06-24T13:08:07;27.50;99.90
12568;DHT22;6349;50.904;6.136;2023-06-24T13:10:09;27.50;99.90
12568;DHT22;6349;50.904;6.136;2023-06-24T13:12:11;27.60;99.90
12568;DHT22;6349;50.904;6.136;2023-06-24T13:14:13;27.80;99.90
12568;DHT22;6349;50.904;6.136;2023-06-24T13:16:15;27.90;99.90
12568;DHT22;6349;50.904;6.136;2023-06-24T13:18:16;27.90;99.90
12568;DHT22;6349;50.904;6.136;2023-06-24T13:20:19;27.90;99.90